createdAt,value
2022-10-11T00:00:45.259Z,9.53
2022-10-11T00:06:03.795Z,9.46
2022-10-11T00:11:21.026Z,9.39
2022-10-11T00:16:40.930Z,9.32
2022-10-11T00:21:57.352Z,9.26
2022-10-11T00:27:15.174Z,9.20
2022-10-11T00:32:30.850Z,9.12
2022-10-11T00:37:47.345Z,9.06
2022-10-11T00:43:04.660Z,8.99
2022-10-11T00:48:32.957Z,8.92
2022-10-11T00:53:48.982Z,8.87
2022-10-11T00:59:08.571Z,8.83
2022-10-11T01:04:24.772Z,8.78
2022-10-11T01:09:41.360Z,8.72
2022-10-11T01:15:16.460Z,8.63
2022-10-11T01:20:41.621Z,8.54
2022-10-11T01:26:07.397Z,8.50
2022-10-11T01:31:26.615Z,8.42
2022-10-11T01:37:06.332Z,8.36
2022-10-11T01:42:21.876Z,8.31
2022-10-11T01:47:39.189Z,8.31
2022-10-11T01:52:55.136Z,8.30
2022-10-11T01:58:36.419Z,8.24
2022-10-11T02:04:33.950Z,8.19
2022-10-11T02:10:26.366Z,8.18
2022-10-11T02:15:42.559Z,8.16
2022-10-11T02:21:00.864Z,8.10
2022-10-11T02:26:18.158Z,8.08
2022-10-11T02:31:33.891Z,8.06
2022-10-11T02:36:51.858Z,8.06
2022-10-11T02:42:11.942Z,8.05
2022-10-11T02:47:30.486Z,8.00
2022-10-11T02:52:47.392Z,7.96
2022-10-11T02:58:03.431Z,7.94
2022-10-11T03:03:23.023Z,7.87
2022-10-11T03:08:39.801Z,7.86
2022-10-11T03:13:59.493Z,7.83
2022-10-11T03:19:19.141Z,7.81
2022-10-11T03:24:36.071Z,7.77
2022-10-11T03:29:55.896Z,7.73
2022-10-11T03:35:12.525Z,7.67
2022-10-11T03:40:29.119Z,7.59
2022-10-11T03:45:45.769Z,7.52
2022-10-11T03:51:03.551Z,7.47
2022-10-11T03:56:18.958Z,7.41
2022-10-11T04:01:38.098Z,7.39
2022-10-11T04:06:56.378Z,7.40
2022-10-11T04:12:12.536Z,7.36
2022-10-11T04:17:29.739Z,7.36
2022-10-11T04:22:45.340Z,7.37
2022-10-11T04:28:01.950Z,7.37
2022-10-11T04:33:18.739Z,7.30
2022-10-11T04:38:35.148Z,7.29
2022-10-11T04:43:54.784Z,7.29
2022-10-11T04:49:10.018Z,7.28
2022-10-11T04:54:26.754Z,7.27
2022-10-11T04:59:46.682Z,7.25
2022-10-11T05:05:06.927Z,7.25
2022-10-11T05:10:22.872Z,7.09
2022-10-11T05:15:39.677Z,7.05
2022-10-11T05:21:14.242Z,6.98
2022-10-11T05:26:30.752Z,6.89
2022-10-11T05:31:46.989Z,6.91
2022-10-11T05:37:03.722Z,6.88
2022-10-11T05:42:20.251Z,6.86
2022-10-11T05:47:36.812Z,6.81
2022-10-11T05:52:56.068Z,6.79
2022-10-11T05:58:13.510Z,6.73
2022-10-11T06:03:29.884Z,6.70
2022-10-11T06:08:46.531Z,6.69
2022-10-11T06:14:03.119Z,6.74
2022-10-11T06:19:42.542Z,6.84
2022-10-11T06:25:12.569Z,6.93
2022-10-11T06:30:45.708Z,6.94
2022-10-11T06:36:18.370Z,7.00
2022-10-11T06:41:48.801Z,7.07
2022-10-11T06:47:21.703Z,7.17
2022-10-11T06:53:09.264Z,7.23
2022-10-11T06:58:58.107Z,7.29
2022-10-11T07:04:28.087Z,7.42
2022-10-11T07:09:57.494Z,7.52
2022-10-11T07:15:37.994Z,7.64
2022-10-11T07:21:12.148Z,7.70
2022-10-11T07:26:45.313Z,7.80
2022-10-11T07:32:16.277Z,7.91
2022-10-11T07:37:57.596Z,8.00
2022-10-11T07:43:27.654Z,8.08
2022-10-11T07:48:57.082Z,8.17
2022-10-11T07:54:35.643Z,8.27
2022-10-11T08:00:11.928Z,8.40
2022-10-11T08:05:44.878Z,8.50
2022-10-11T08:11:36.574Z,8.65
2022-10-11T08:17:05.834Z,8.81
2022-10-11T08:22:39.389Z,8.95
2022-10-11T08:28:17.425Z,9.06
2022-10-11T08:33:58.772Z,9.22
2022-10-11T08:39:38.872Z,9.39
2022-10-11T08:45:50.135Z,9.53
2022-10-11T08:52:00.011Z,9.68
2022-10-11T08:57:04.055Z,9.84
2022-10-11T09:03:06.827Z,10.00
2022-10-11T09:08:22.166Z,10.20
2022-10-11T09:13:52.456Z,10.30
2022-10-11T09:19:17.458Z,10.44
2022-10-11T09:24:25.734Z,10.64
2022-10-11T09:30:06.267Z,10.81
2022-10-11T09:35:18.774Z,10.99
2022-10-11T09:40:29.567Z,11.11
2022-10-11T09:45:31.224Z,11.21
2022-10-11T09:50:32.915Z,11.33
2022-10-11T09:55:43.506Z,11.44
2022-10-11T10:00:45.160Z,11.58
2022-10-11T10:05:46.895Z,11.69
2022-10-11T10:10:59.571Z,11.83
2022-10-11T10:16:02.648Z,11.90
2022-10-11T10:21:04.774Z,11.99
2022-10-11T10:26:15.139Z,12.07
2022-10-11T10:31:22.311Z,12.21
2022-10-11T10:36:27.726Z,12.29
2022-10-11T10:41:29.428Z,12.35
2022-10-11T10:46:30.936Z,12.51
2022-10-11T10:52:06.707Z,12.61
2022-10-11T10:57:15.401Z,12.65
2022-10-11T11:02:39.665Z,12.69
2022-10-11T11:07:49.384Z,12.78
2022-10-11T11:12:56.931Z,12.93
2022-10-11T11:18:15.009Z,12.99
2022-10-11T11:23:35.629Z,13.09
2022-10-11T11:28:49.873Z,13.16
2022-10-11T11:34:13.754Z,13.19
2022-10-11T11:39:19.173Z,13.23
2022-10-11T11:44:27.273Z,13.18
2022-10-11T11:54:54.314Z,13.45
2022-10-11T12:00:07.688Z,13.72
2022-10-11T12:05:20.956Z,13.87
2022-10-11T12:10:39.825Z,14.23
2022-10-11T12:16:12.369Z,14.53
2022-10-11T12:21:20.644Z,14.59
2022-10-11T12:26:28.269Z,14.76
2022-10-11T12:31:34.625Z,14.50
2022-10-11T12:36:37.362Z,14.56
2022-10-11T12:41:53.524Z,14.86
2022-10-11T12:46:55.037Z,15.08
2022-10-11T12:52:03.859Z,14.87
2022-10-11T12:57:11.839Z,14.94
2022-10-11T13:02:29.848Z,14.60
2022-10-11T13:07:31.461Z,14.66
2022-10-11T13:12:37.566Z,15.17
2022-10-11T13:17:39.470Z,15.50
2022-10-11T13:22:41.281Z,15.72
2022-10-11T13:27:42.922Z,15.79
2022-10-11T13:32:44.547Z,16.02
2022-10-11T13:37:46.905Z,16.49
2022-10-11T13:42:49.285Z,16.42
2022-10-11T13:47:51.505Z,16.40
2022-10-11T13:53:04.718Z,15.89
2022-10-11T13:58:14.967Z,15.60
2022-10-11T14:03:19.980Z,15.54
2022-10-11T14:08:30.552Z,15.85
2022-10-11T14:13:34.082Z,15.59
2022-10-11T14:18:49.752Z,15.66
2022-10-11T14:24:11.972Z,15.92
2022-10-11T14:29:31.219Z,15.50
2022-10-11T14:34:33.026Z,15.25
2022-10-11T14:39:34.753Z,15.24
2022-10-11T14:44:36.469Z,14.84
2022-10-11T14:49:38.131Z,14.84
2022-10-11T14:54:39.763Z,14.73
2022-10-11T14:59:43.182Z,14.67
2022-10-11T15:04:44.831Z,14.72
2022-10-11T15:09:46.530Z,14.59
2022-10-11T15:14:48.191Z,14.65
2022-10-11T15:19:50.730Z,14.54
2022-10-11T15:24:52.367Z,14.55
2022-10-11T15:29:54.011Z,14.55
2022-10-11T15:34:55.632Z,14.67
2022-10-11T15:39:57.281Z,14.56
2022-10-11T15:44:58.974Z,14.54
2022-10-11T15:50:00.698Z,14.44
2022-10-11T15:55:02.379Z,14.28
2022-10-11T16:00:04.670Z,14.10
2022-10-11T16:05:13.465Z,14.07
2022-10-11T16:10:15.268Z,14.02
2022-10-11T16:15:17.070Z,13.86
2022-10-11T16:20:22.248Z,13.70
2022-10-11T16:25:24.025Z,13.53
2022-10-11T16:30:26.000Z,13.35
2022-10-11T16:35:32.253Z,13.22
2022-10-11T16:40:35.919Z,13.10
2022-10-11T16:45:37.869Z,12.91
2022-10-11T16:50:39.927Z,12.69
2022-10-11T16:55:41.680Z,12.55
2022-10-11T17:00:43.447Z,12.45
2022-10-11T17:05:45.162Z,12.28
2022-10-11T17:10:52.595Z,12.12
2022-10-11T17:15:54.239Z,11.96
2022-10-11T17:21:07.009Z,11.75
2022-10-11T17:26:11.547Z,11.60
2022-10-11T17:31:13.466Z,11.45
2022-10-11T17:36:24.168Z,11.29
2022-10-11T17:41:30.878Z,11.12
2022-10-11T17:46:33.791Z,10.96
2022-10-11T17:51:35.920Z,10.82
2022-10-11T17:56:38.281Z,10.71
2022-10-11T18:01:40.136Z,10.61
2022-10-11T18:06:43.467Z,10.49
2022-10-11T18:11:45.143Z,10.31
2022-10-11T18:16:46.898Z,10.21
2022-10-11T18:21:48.520Z,10.11
2022-10-11T18:26:50.195Z,9.95
2022-10-11T18:31:52.001Z,9.88
2022-10-11T18:36:53.698Z,9.81
2022-10-11T18:41:55.459Z,9.78
2022-10-11T18:46:58.463Z,9.69
2022-10-11T18:52:00.142Z,9.66
2022-10-11T18:57:01.803Z,9.66
2022-10-11T19:02:04.827Z,9.59
2022-10-11T19:07:06.539Z,9.54
2022-10-11T19:12:08.273Z,9.48
2022-10-11T19:17:12.222Z,9.41
2022-10-11T19:22:13.890Z,9.32
2022-10-11T19:27:15.546Z,9.20
2022-10-11T19:32:17.213Z,9.12
2022-10-11T19:37:18.908Z,9.07
2022-10-11T19:42:20.571Z,8.99
2022-10-11T19:47:22.303Z,8.89
2022-10-11T19:52:23.979Z,8.80
2022-10-11T19:57:25.611Z,8.64
2022-10-11T20:02:27.260Z,8.43
2022-10-11T20:07:29.049Z,8.34
2022-10-11T20:12:31.160Z,8.27
2022-10-11T20:17:48.294Z,8.26
2022-10-11T20:22:49.953Z,8.22
2022-10-11T20:27:51.631Z,8.21
2022-10-11T20:32:53.315Z,8.11
2022-10-11T20:37:54.931Z,8.07
2022-10-11T20:42:56.566Z,8.01
2022-10-11T20:47:59.135Z,7.96
2022-10-11T20:53:00.769Z,7.90
2022-10-11T20:58:02.414Z,7.87
2022-10-11T21:03:04.078Z,7.80
2022-10-11T21:08:05.715Z,7.73
2022-10-11T21:13:07.413Z,7.66
2022-10-11T21:18:09.076Z,7.57
2022-10-11T21:23:11.072Z,7.44
2022-10-11T21:28:12.935Z,7.31
2022-10-11T21:33:14.628Z,7.23
2022-10-11T21:38:16.275Z,7.13
2022-10-11T21:43:17.936Z,7.14
2022-10-11T21:48:19.581Z,7.05
2022-10-11T21:53:21.307Z,6.98
2022-10-11T21:58:22.946Z,6.92
2022-10-11T22:03:25.350Z,6.81
2022-10-11T22:08:26.997Z,6.71
2022-10-11T22:13:29.411Z,6.65
2022-10-11T22:18:33.653Z,6.62
2022-10-11T22:23:35.603Z,6.58
2022-10-11T22:28:37.275Z,6.48
2022-10-11T22:33:39.156Z,6.37
2022-10-11T22:38:41.954Z,6.32
2022-10-11T22:43:43.584Z,6.29
2022-10-11T22:48:45.223Z,6.21
2022-10-11T22:53:46.923Z,6.15
2022-10-11T22:58:48.589Z,6.09
2022-10-11T23:03:50.799Z,6.03
2022-10-11T23:08:52.516Z,5.96
2022-10-11T23:13:54.162Z,5.95
2022-10-11T23:18:55.881Z,5.91
2022-10-11T23:23:57.502Z,5.84
2022-10-11T23:28:59.130Z,5.83
2022-10-11T23:34:00.779Z,5.81
2022-10-11T23:39:02.411Z,5.79
2022-10-11T23:44:04.080Z,5.78
2022-10-11T23:49:05.705Z,5.68
2022-10-11T23:54:07.407Z,5.60
2022-10-11T23:59:09.089Z,5.55
